Time;durP1;ratioP1;P1;durP2;ratioP2;P2;SDS_P1;SDS_P2;PMS_P1;PMS_P2;Temp;Humidity;BMP_temperature;BMP_pressure;BME280_temperature;BME280_humidity;BME280_pressure;Samples;Min_cycle;Max_cycle;Signal;HPM_P1;HPM_P2
2021/11/22 00:02:07;;;;;;;19.13;9.80;;;;;;;4.20;100.00;98568.06;5070526;28;20024;-70
2021/11/22 00:04:33;;;;;;;25.13;11.77;;;;;;;4.19;100.00;98580.59;5066640;28;20027;-70
2021/11/22 00:06:58;;;;;;;21.48;11.10;;;;;;;4.21;100.00;98575.09;5069467;28;20028;-70
2021/11/22 00:09:23;;;;;;;17.90;9.40;;;;;;;4.13;100.00;98565.22;5068512;28;20412;-70
2021/11/22 00:11:49;;;;;;;19.40;10.10;;;;;;;4.17;100.00;98575.44;5071540;28;20404;-70
2021/11/22 00:14:16;;;;;;;20.65;10.40;;;;;;;4.17;100.00;98580.78;5079004;28;20033;-71
2021/11/22 00:16:42;;;;;;;19.77;10.52;;;;;;;4.29;100.00;98578.59;5075960;28;20024;-70
2021/11/22 00:19:07;;;;;;;22.58;10.65;;;;;;;4.22;100.00;98576.75;5067159;28;20021;-70
2021/11/22 00:21:33;;;;;;;21.38;10.25;;;;;;;4.20;100.00;98579.63;5069968;28;20028;-69
2021/11/22 00:23:58;;;;;;;21.15;10.38;;;;;;;4.17;100.00;98583.47;5066391;28;20497;-71
2021/11/22 00:26:24;;;;;;;19.42;10.40;;;;;;;4.05;100.00;98558.03;5060833;28;20032;-70
2021/11/22 00:28:49;;;;;;;19.00;9.95;;;;;;;4.20;100.00;98582.28;5066181;28;20036;-70
2021/11/22 00:31:14;;;;;;;21.75;10.60;;;;;;;4.17;100.00;98580.78;5070421;28;20402;-69
2021/11/22 00:33:43;;;;;;;19.30;9.77;;;;;;;4.20;100.00;98589.50;5067742;28;20024;-69
2021/11/22 00:36:08;;;;;;;15.18;8.32;;;;;;;4.10;100.00;98577.09;5064060;28;20513;-70
2021/11/22 00:38:34;;;;;;;20.58;10.13;;;;;;;3.97;100.00;98555.34;5066407;28;20032;-70
2021/11/22 00:40:59;;;;;;;24.85;11.02;;;;;;;4.21;100.00;98601.88;5064926;28;20039;-70
2021/11/22 00:43:25;;;;;;;21.48;11.20;;;;;;;4.20;100.00;98594.84;5069800;28;20107;-70
2021/11/22 00:45:52;;;;;;;25.33;12.63;;;;;;;4.21;100.00;98607.22;5067831;28;20058;-70
2021/11/22 00:48:21;;;;;;;27.73;12.82;;;;;;;4.17;100.00;98596.84;5068415;28;20028;-70
2021/11/22 00:50:47;;;;;;;30.08;12.13;;;;;;;4.23;100.00;98608.72;5069073;28;20023;-70
2021/11/22 00:53:12;;;;;;;26.38;13.07;;;;;;;4.14;100.00;98588.34;5067332;28;20390;-70
2021/11/22 00:55:38;;;;;;;30.30;13.90;;;;;;;4.26;100.00;98607.56;5065224;28;20033;-70
2021/11/22 00:58:03;;;;;;;27.08;13.93;;;;;;;4.24;100.00;98612.25;5067763;28;20046;-70
2021/11/22 01:00:29;;;;;;;27.00;12.85;;;;;;;4.13;100.00;98600.03;5053469;28;20103;-70
2021/11/22 01:02:54;;;;;;;26.75;12.48;;;;;;;4.24;100.00;98614.91;5065534;28;20493;-70
2021/11/22 01:05:19;;;;;;;27.90;13.82;;;;;;;4.23;100.00;98622.13;5068715;28;20063;-71
2021/11/22 01:07:46;;;;;;;24.25;13.30;;;;;;;4.19;100.00;98620.75;5064604;28;20108;-71
2021/11/22 01:10:14;;;;;;;28.00;13.30;;;;;;;4.21;100.00;98628.66;5069140;28;20103;-70
2021/11/22 01:12:40;;;;;;;28.83;13.18;;;;;;;4.23;100.00;98638.19;5069633;28;20702;-69
2021/11/22 01:15:10;;;;;;;31.67;13.95;;;;;;;4.21;100.00;98639.34;5069127;28;20139;-70
2021/11/22 01:17:36;;;;;;;28.52;13.70;;;;;;;4.06;100.00;98613.25;5068134;28;20622;-70
2021/11/22 01:20:05;;;;;;;30.98;14.68;;;;;;;4.20;100.00;98637.69;5068921;28;20505;-71
2021/11/22 01:22:30;;;;;;;28.42;13.50;;;;;;;4.19;100.00;98642.19;5071648;28;20637;-70
2021/11/22 01:24:56;;;;;;;26.05;13.43;;;;;;;4.18;100.00;98641.34;5065577;28;20024;-70
2021/11/22 01:27:22;;;;;;;29.33;13.05;;;;;;;4.15;100.00;98646.22;5069298;28;20169;-70
2021/11/22 01:29:47;;;;;;;30.20;13.93;;;;;;;4.17;100.00;98653.09;5068083;28;20032;-71
2021/11/22 01:32:12;;;;;;;30.67;14.50;;;;;;;4.18;100.00;98654.75;5068286;28;20031;-70
2021/11/22 01:34:37;;;;;;;32.00;14.23;;;;;;;4.18;100.00;98653.91;5065037;28;20030;-70
2021/11/22 01:37:03;;;;;;;28.92;14.23;;;;;;;4.15;100.00;98654.25;5068122;28;20028;-70
2021/11/22 01:39:28;;;;;;;27.23;13.85;;;;;;;4.15;100.00;98654.25;5068998;28;20028;-71
2021/11/22 01:41:54;;;;;;;30.58;13.90;;;;;;;4.13;100.00;98659.75;5069899;28;20024;-70
2021/11/22 01:44:19;;;;;;;30.88;13.43;;;;;;;4.10;100.00;98654.75;5068293;28;20028;-70
2021/11/22 01:46:46;;;;;;;28.10;12.40;;;;;;;4.12;100.00;98655.41;5064168;28;20024;-70
2021/11/22 01:49:12;;;;;;;28.05;12.70;;;;;;;3.99;100.00;98639.00;5062655;28;20029;-70
2021/11/22 01:51:37;;;;;;;32.17;13.77;;;;;;;4.04;100.00;98639.34;5067364;28;20043;-70
2021/11/22 01:54:02;;;;;;;28.70;12.85;;;;;;;3.82;100.00;98605.19;5065563;28;20032;-70
2021/11/22 01:56:28;;;;;;;24.35;12.13;;;;;;;4.07;100.00;98646.22;5068483;28;20037;-70
2021/11/22 01:58:54;;;;;;;26.15;12.25;;;;;;;4.04;100.00;98647.38;5067694;28;20433;-70
2021/11/22 02:01:19;;;;;;;25.10;12.45;;;;;;;4.03;100.00;98647.53;5068862;28;20036;-70
2021/11/22 02:03:45;;;;;;;25.83;13.35;;;;;;;3.86;100.00;98623.44;5064891;28;20505;-71
2021/11/22 02:06:11;;;;;;;28.90;13.85;;;;;;;3.84;100.00;98633.47;5069476;28;20036;-72
2021/11/22 02:08:37;;;;;;;26.80;12.40;;;;;;;4.00;100.00;98651.38;5067068;28;20025;-70
2021/11/22 02:11:03;;;;;;;25.20;12.77;;;;;;;4.01;100.00;98649.53;5067061;28;20082;-70
2021/11/22 02:13:29;;;;;;;27.45;14.32;;;;;;;3.98;100.00;98658.72;5068001;28;20052;-70
2021/11/22 02:15:54;;;;;;;33.25;14.70;;;;;;;3.85;100.00;98636.97;5069598;28;20059;-69
2021/11/22 02:18:19;;;;;;;26.20;13.55;;;;;;;3.92;100.00;98651.38;5066445;28;20036;-70
2021/11/22 02:20:45;;;;;;;29.75;13.95;;;;;;;3.94;100.00;98649.38;5069381;28;20028;-70
2021/11/22 02:23:11;;;;;;;32.17;13.80;;;;;;;3.89;100.00;98646.34;5072511;28;20815;-70
2021/11/22 02:25:39;;;;;;;34.33;15.15;;;;;;;3.93;100.00;98658.41;5071048;28;20066;-72
2021/11/22 02:28:06;;;;;;;28.20;12.90;;;;;;;3.91;100.00;98658.56;5071390;28;20532;-70
2021/11/22 02:30:37;;;;;;;33.40;14.43;;;;;;;3.81;100.00;98649.84;5070448;28;20032;-71
2021/11/22 02:33:10;;;;;;;25.85;12.48;;;;;;;3.87;100.00;98667.09;5072390;28;20029;-70
2021/11/22 02:35:42;;;;;;;27.20;12.93;;;;;;;3.86;100.00;98665.41;5058651;28;20111;-69
2021/11/22 02:38:07;;;;;;;26.45;12.15;;;;;;;3.75;100.00;98645.16;5069170;28;20044;-70
2021/11/22 02:40:33;;;;;;;26.38;12.60;;;;;;;3.83;100.00;98671.09;5070502;28;20456;-70
2021/11/22 02:42:59;;;;;;;31.73;12.98;;;;;;;3.81;100.00;98668.56;5072731;28;20028;-71
2021/11/22 02:45:24;;;;;;;27.20;13.32;;;;;;;3.74;100.00;98659.53;5066366;28;20579;-70
2021/11/22 02:47:51;;;;;;;26.40;12.20;;;;;;;3.78;100.00;98670.75;5067366;28;20020;-70
2021/11/22 02:50:19;;;;;;;26.90;13.13;;;;;;;3.76;100.00;98662.03;5071112;28;20433;-71
2021/11/22 02:52:46;;;;;;;26.55;12.68;;;;;;;3.65;100.00;98653.31;5066718;28;20389;-70
2021/11/22 02:55:13;;;;;;;26.38;12.10;;;;;;;3.76;100.00;98667.41;5068061;28;20031;-70
2021/11/22 02:57:39;;;;;;;26.88;11.80;;;;;;;3.75;100.00;98666.56;5067539;28;20016;-71
2021/11/22 03:00:07;;;;;;;25.88;11.48;;;;;;;3.77;100.00;98669.06;5071685;28;20032;-70
2021/11/22 03:02:32;;;;;;;26.60;11.73;;;;;;;3.72;100.00;98678.44;5071608;28;20059;-70
2021/11/22 03:04:58;;;;;;;27.23;12.77;;;;;;;3.63;100.00;98662.50;5071012;28;20056;-70
2021/11/22 03:07:23;;;;;;;26.92;12.45;;;;;;;3.69;100.00;98668.06;5067576;28;20048;-70
2021/11/22 03:09:48;;;;;;;25.65;12.48;;;;;;;3.60;100.00;98655.66;5070635;28;20039;-70
2021/11/22 03:12:14;;;;;;;21.40;10.05;;;;;;;3.56;100.00;98645.41;5071460;28;20103;-70
2021/11/22 03:14:40;;;;;;;26.38;11.77;;;;;;;3.71;100.00;98679.41;5070698;28;20785;-70
2021/11/22 03:17:07;;;;;;;27.50;12.05;;;;;;;3.71;100.00;98687.44;5069520;28;20053;-71
2021/11/22 03:19:32;;;;;;;23.08;11.23;;;;;;;3.72;100.00;98693.63;5066060;28;20385;-70
2021/11/22 03:21:58;;;;;;;25.85;11.90;;;;;;;3.75;100.00;98696.00;5071171;28;20028;-70
2021/11/22 03:24:24;;;;;;;23.05;11.15;;;;;;;3.66;100.00;98689.75;5069054;28;20773;-70
2021/11/22 03:26:50;;;;;;;27.30;12.60;;;;;;;3.74;100.00;98689.78;5070631;28;20394;-70
2021/11/22 03:29:15;;;;;;;32.05;12.45;;;;;;;3.88;100.00;98708.91;5070121;28;20039;-70
2021/11/22 03:31:41;;;;;;;25.88;13.23;;;;;;;3.85;100.00;98701.19;5071369;28;20145;-70
2021/11/22 03:34:09;;;;;;;26.92;12.20;;;;;;;3.74;100.00;98694.31;5062711;28;20033;-70
2021/11/22 03:36:34;;;;;;;29.58;13.52;;;;;;;3.66;100.00;98683.56;5069356;28;20032;-70
2021/11/22 03:39:04;;;;;;;30.02;13.48;;;;;;;3.82;100.00;98704.19;5066423;28;20535;-70
2021/11/22 03:41:31;;;;;;;27.10;12.10;;;;;;;3.72;100.00;98686.47;5070128;28;20549;-69
2021/11/22 03:44:10;;;;;;;29.58;12.50;;;;;;;3.82;100.00;98709.56;5070283;28;20024;-71
2021/11/22 03:46:36;;;;;;;25.67;11.98;;;;;;;3.82;100.00;98712.22;5063927;28;20074;-70
2021/11/22 03:49:01;;;;;;;29.42;12.20;;;;;;;3.72;100.00;98685.59;5066324;28;20029;-70
2021/11/22 03:51:27;;;;;;;26.13;12.27;;;;;;;3.86;100.00;98714.41;5071151;28;20035;-70
2021/11/22 03:53:52;;;;;;;24.90;11.98;;;;;;;3.89;100.00;98718.63;5069362;28;20024;-70
2021/11/22 03:56:19;;;;;;;25.02;12.13;;;;;;;3.93;100.00;98719.97;5070785;28;20032;-70
2021/11/22 03:58:44;;;;;;;26.52;11.70;;;;;;;3.93;100.00;98723.47;5067580;28;20039;-71
2021/11/22 04:01:09;;;;;;;23.45;11.52;;;;;;;3.97;100.00;98725.81;5071228;28;20033;-71
2021/11/22 04:03:34;;;;;;;23.45;10.80;;;;;;;3.90;100.00;98714.91;5068743;28;20541;-70
2021/11/22 04:06:00;;;;;;;22.15;10.40;;;;;;;3.93;100.00;98719.97;5063367;28;20041;-70
2021/11/22 04:08:25;;;;;;;26.80;11.00;;;;;;;4.02;100.00;98729.69;5068762;28;20025;-69
2021/11/22 04:10:50;;;;;;;24.10;10.63;;;;;;;4.01;100.00;98728.03;5065021;28;20070;-71
2021/11/22 04:13:16;;;;;;;22.05;10.00;;;;;;;4.02;100.00;98727.00;5070446;28;20437;-70
2021/11/22 04:15:42;;;;;;;22.08;11.07;;;;;;;4.00;100.00;98728.19;5067527;28;20027;-71
2021/11/22 04:18:08;;;;;;;20.77;10.35;;;;;;;3.98;100.00;98731.00;5070068;28;20390;-73
2021/11/22 04:20:34;;;;;;;19.52;9.90;;;;;;;3.96;100.00;98730.34;5053637;28;20029;-69
2021/11/22 04:23:00;;;;;;;17.35;8.95;;;;;;;3.99;100.00;98734.53;5068091;28;20106;-69
2021/11/22 04:25:26;;;;;;;20.52;9.73;;;;;;;3.98;100.00;98739.03;5059500;28;20051;-71
2021/11/22 04:27:51;;;;;;;22.52;10.05;;;;;;;3.99;100.00;98740.72;5069028;28;20474;-74
2021/11/22 04:30:17;;;;;;;20.00;9.70;;;;;;;3.98;100.00;98739.03;5069919;28;20390;-68
2021/11/22 04:32:43;;;;;;;16.80;9.00;;;;;;;4.00;100.00;98738.88;5071402;28;20124;-73
2021/11/22 04:35:11;;;;;;;18.98;9.65;;;;;;;4.01;100.00;98752.13;5070764;28;20107;-69
2021/11/22 04:37:36;;;;;;;18.17;9.75;;;;;;;4.02;100.00;98755.63;5068390;28;20020;-71
2021/11/22 04:40:05;;;;;;;17.83;9.00;;;;;;;3.90;100.00;98733.66;5070520;28;20074;-69
2021/11/22 04:42:31;;;;;;;21.58;9.60;;;;;;;4.01;100.00;98757.47;5070991;28;20024;-70
2021/11/22 04:44:56;;;;;;;19.30;9.02;;;;;;;4.03;100.00;98765.31;5070515;28;20029;-70
2021/11/22 04:47:22;;;;;;;21.00;9.77;;;;;;;4.03;100.00;98762.63;5060622;28;20028;-71
2021/11/22 04:49:52;;;;;;;17.08;8.88;;;;;;;4.04;100.00;98767.00;5065339;28;20505;-71
2021/11/22 04:52:19;;;;;;;19.83;9.45;;;;;;;4.02;100.00;98767.16;5090101;28;20024;-70
2021/11/22 04:54:46;;;;;;;19.60;9.35;;;;;;;4.06;100.00;98768.53;5061801;28;20096;-70
2021/11/22 04:57:12;;;;;;;18.67;9.45;;;;;;;4.07;100.00;98772.88;5068351;28;20028;-71
2021/11/22 04:59:38;;;;;;;18.52;8.77;;;;;;;4.09;100.00;98783.44;5067851;28;20600;-71
2021/11/22 05:02:04;;;;;;;20.00;9.23;;;;;;;4.01;100.00;98765.50;5061249;28;20490;-74
2021/11/22 05:04:30;;;;;;;17.60;9.00;;;;;;;4.12;100.00;98783.94;5064327;28;20033;-72
2021/11/22 05:06:55;;;;;;;19.90;9.65;;;;;;;4.04;100.00;98767.84;5068939;28;20103;-72
2021/11/22 05:09:21;;;;;;;13.70;8.45;;;;;;;4.00;100.00;98768.31;5067782;28;20028;-76
2021/11/22 05:11:50;;;;;;;20.55;8.88;;;;;;;4.01;100.00;98764.63;5073141;28;20482;-73
2021/11/22 05:14:16;;;;;;;19.23;9.00;;;;;;;4.13;100.00;98792.78;5073536;28;20070;-78
2021/11/22 05:16:43;;;;;;;17.33;8.85;;;;;;;4.06;100.00;98768.53;5087690;28;20040;-76
2021/11/22 05:19:10;;;;;;;15.43;8.68;;;;;;;4.14;100.00;98787.28;5069178;28;20561;-74
2021/11/22 05:21:35;;;;;;;16.42;8.18;;;;;;;4.00;100.00;98765.66;5048506;28;20024;-71
2021/11/22 05:24:02;;;;;;;16.23;8.30;;;;;;;4.18;100.00;98796.66;5077364;28;20021;-74
2021/11/22 05:26:31;;;;;;;17.42;8.18;;;;;;;4.17;100.00;98810.22;5050475;28;20111;-74
2021/11/22 05:28:57;;;;;;;14.30;7.57;;;;;;;4.22;100.00;98807.03;5066725;28;20024;-72
2021/11/22 05:31:23;;;;;;;14.52;7.50;;;;;;;4.06;100.00;98783.72;5069366;28;20576;-75
2021/11/22 05:33:50;;;;;;;14.18;7.80;;;;;;;4.20;100.00;98809.91;5067550;28;20029;-73
2021/11/22 05:36:16;;;;;;;15.57;8.15;;;;;;;4.09;100.00;98788.78;5065064;28;20077;-70
2021/11/22 05:38:41;;;;;;;14.68;8.05;;;;;;;4.00;100.00;98795.09;5062073;28;20028;-75
2021/11/22 05:41:07;;;;;;;13.13;7.07;;;;;;;3.89;100.00;98772.13;5066613;28;20036;-74
2021/11/22 05:43:32;;;;;;;17.10;7.72;;;;;;;4.17;100.00;98811.06;5067664;28;20090;-71
2021/11/22 05:45:58;;;;;;;14.68;7.32;;;;;;;4.02;100.00;98790.44;5067608;28;20103;-73
2021/11/22 05:48:23;;;;;;;16.25;8.32;;;;;;;4.11;100.00;98817.06;5068397;28;20116;-71
2021/11/22 05:50:54;;;;;;;14.05;7.50;;;;;;;4.11;100.00;98817.06;5068274;28;20159;-72
2021/11/22 05:53:20;;;;;;;14.43;7.53;;;;;;;4.05;100.00;98811.50;5064306;28;20036;-69
2021/11/22 05:55:50;;;;;;;16.05;8.25;;;;;;;3.76;100.00;98759.22;5069434;28;20537;-74
2021/11/22 05:58:16;;;;;;;16.42;8.52;;;;;;;4.17;100.00;98832.47;5067732;28;20043;-81
2021/11/22 06:00:43;;;;;;;14.80;7.85;;;;;;;4.10;100.00;98822.56;5079770;28;20116;-74
2021/11/22 06:03:09;;;;;;;12.88;7.40;;;;;;;4.18;100.00;98844.84;5068813;28;20063;-78
2021/11/22 06:05:35;;;;;;;15.35;7.53;;;;;;;3.91;100.00;98805.78;5071065;28;20020;-76
2021/11/22 06:08:00;;;;;;;15.82;7.90;;;;;;;3.99;100.00;98817.53;5064360;28;20028;-76
2021/11/22 06:10:27;;;;;;;14.60;7.55;;;;;;;3.95;100.00;98820.50;5071160;28;20090;-72
2021/11/22 06:12:52;;;;;;;13.23;7.40;;;;;;;4.00;100.00;98820.03;5070440;28;20036;-73
2021/11/22 06:15:18;;;;;;;15.88;7.88;;;;;;;4.14;100.00;98848.88;5064893;28;20418;-72
2021/11/22 06:17:43;;;;;;;12.52;6.03;;;;;;;3.98;100.00;98816.66;5061407;28;20115;-69
2021/11/22 06:20:09;;;;;;;12.77;6.78;;;;;;;4.05;100.00;98849.81;5058628;28;20033;-71
2021/11/22 06:22:35;;;;;;;13.35;7.38;;;;;;;4.20;100.00;98854.59;5064984;28;20029;-72
2021/11/22 06:25:00;;;;;;;11.95;6.22;;;;;;;4.16;100.00;98860.25;5065640;28;20029;-70
2021/11/22 06:27:27;;;;;;;11.35;5.88;;;;;;;4.14;100.00;98856.06;5059110;28;20035;-73
2021/11/22 06:29:53;;;;;;;11.23;6.13;;;;;;;4.05;100.00;98849.00;5052112;28;20067;-74
2021/11/22 06:32:18;;;;;;;12.52;6.43;;;;;;;4.10;100.00;98868.94;5064750;28;20033;-71
2021/11/22 06:34:44;;;;;;;12.00;6.25;;;;;;;4.00;100.00;98862.84;5061373;28;20032;-72
2021/11/22 06:37:09;;;;;;;14.48;6.25;;;;;;;4.17;100.00;98859.25;5067653;28;20031;-72
2021/11/22 06:39:36;;;;;;;10.82;6.13;;;;;;;4.22;100.00;98882.00;5063749;28;20060;-72
2021/11/22 06:42:01;;;;;;;11.30;5.65;;;;;;;4.13;100.00;98846.34;5070218;28;20381;-77
2021/11/22 06:44:27;;;;;;;12.43;6.45;;;;;;;4.26;100.00;98888.75;5068205;28;20025;-70
2021/11/22 06:46:52;;;;;;;15.93;6.65;;;;;;;4.08;100.00;98865.56;5061671;28;20039;-75
2021/11/22 06:49:19;;;;;;;9.35;5.72;;;;;;;4.26;100.00;98883.38;5066740;28;20033;-73
2021/11/22 06:51:46;;;;;;;12.32;5.90;;;;;;;4.28;100.00;98895.63;5067658;28;20523;-72
2021/11/22 06:54:11;;;;;;;12.18;5.93;;;;;;;4.00;100.00;98862.84;5067759;28;20059;-70
2021/11/22 06:56:37;;;;;;;11.85;6.47;;;;;;;4.35;100.00;98906.53;5067134;28;20056;-72
2021/11/22 06:59:02;;;;;;;12.05;5.53;;;;;;;4.23;100.00;98889.06;5061700;28;20048;-74
2021/11/22 07:01:29;;;;;;;15.23;6.80;;;;;;;4.30;100.00;98906.19;5065641;28;20036;-74
2021/11/22 07:03:54;;;;;;;15.98;6.25;;;;;;;4.37;100.00;98910.72;5070440;28;20020;-75
2021/11/22 07:06:19;;;;;;;12.80;6.45;;;;;;;4.33;100.00;98895.97;5070637;28;20795;-79
2021/11/22 07:08:45;;;;;;;13.48;6.40;;;;;;;4.36;100.00;98911.72;5075881;28;20024;-76
2021/11/22 07:11:10;;;;;;;13.15;6.43;;;;;;;4.31;100.00;98900.66;5075655;28;20071;-70
2021/11/22 07:13:35;;;;;;;10.80;6.15;;;;;;;4.49;100.00;98926.50;5074737;28;20475;-73
2021/11/22 07:16:01;;;;;;;12.32;6.60;;;;;;;4.51;100.00;98921.84;5068562;28;20024;-73
2021/11/22 07:18:27;;;;;;;13.38;6.30;;;;;;;4.54;100.00;98941.09;5061671;28;20402;-69
2021/11/22 07:20:53;;;;;;;14.63;6.20;;;;;;;4.58;100.00;98941.59;5073330;28;20021;-68
2021/11/22 07:23:22;;;;;;;14.35;6.28;;;;;;;4.56;100.00;98936.41;5071557;28;20809;-72
2021/11/22 07:25:49;;;;;;;10.80;5.90;;;;;;;4.55;100.00;98932.03;5073117;28;20044;-78
2021/11/22 07:28:14;;;;;;;11.20;6.07;;;;;;;4.71;100.00;98935.78;5072021;28;20032;-73
2021/11/22 07:30:39;;;;;;;12.00;6.10;;;;;;;4.67;100.00;98929.09;5071076;28;20141;-72
2021/11/22 07:33:05;;;;;;;10.38;6.00;;;;;;;4.85;100.00;98956.63;5070569;28;20071;-75
2021/11/22 07:35:30;;;;;;;9.75;5.18;;;;;;;4.90;100.00;98965.03;5071349;28;20093;-71
2021/11/22 07:37:56;;;;;;;15.15;5.82;;;;;;;4.79;100.00;98944.72;5054089;28;20075;-73
2021/11/22 07:40:22;;;;;;;12.93;5.70;;;;;;;4.93;100.00;98962.00;5081369;28;20128;-70
2021/11/22 07:42:52;;;;;;;9.95;5.65;;;;;;;4.66;100.00;98944.31;5070408;28;20020;-70
2021/11/22 07:45:20;;;;;;;12.13;6.10;;;;;;;4.83;100.00;98966.66;5064260;28;20052;-72
2021/11/22 07:47:46;;;;;;;9.95;5.60;;;;;;;4.66;100.00;98962.22;5072550;28;20031;-72
2021/11/22 07:50:11;;;;;;;13.35;5.45;;;;;;;4.61;100.00;98944.81;5068547;28;20111;-72
2021/11/22 07:52:37;;;;;;;8.48;5.13;;;;;;;4.81;100.00;98974.84;5054364;28;20078;-71
2021/11/22 07:55:03;;;;;;;9.63;5.40;;;;;;;4.77;100.00;98970.84;5069905;28;20036;-72
2021/11/22 07:57:29;;;;;;;11.00;5.97;;;;;;;4.81;100.00;98968.66;5071052;28;20028;-72
2021/11/22 07:59:55;;;;;;;10.50;4.90;;;;;;;4.72;100.00;98965.13;5060541;28;20024;-72
2021/11/22 08:02:20;;;;;;;8.93;5.05;;;;;;;4.89;100.00;98990.13;5066184;28;20029;-72
2021/11/22 08:04:46;;;;;;;9.20;5.50;;;;;;;4.83;100.00;98985.44;5070043;28;20502;-76
2021/11/22 08:07:16;;;;;;;8.38;5.30;;;;;;;4.86;100.00;98985.09;5063100;28;20555;-71
2021/11/22 08:09:56;;;;;;;9.95;5.45;;;;;;;4.97;100.00;99008.91;5059445;28;20029;-74
2021/11/22 08:12:27;;;;;;;9.48;5.05;;;;;;;4.84;100.00;98990.59;5067602;28;20021;-76
2021/11/22 08:14:59;;;;;;;8.38;5.30;;;;;;;4.99;100.00;99011.44;5069037;28;20052;-72
2021/11/22 08:17:26;;;;;;;8.15;4.53;;;;;;;5.00;100.00;99013.97;5069058;28;20056;-75
2021/11/22 08:19:52;;;;;;;8.95;4.78;;;;;;;4.99;100.00;99012.28;5068370;28;20119;-78
2021/11/22 08:22:21;;;;;;;8.90;5.55;;;;;;;5.02;100.00;99019.16;5071786;28;20605;-77
2021/11/22 08:24:50;;;;;;;10.45;5.35;;;;;;;5.04;100.00;99023.38;5069575;28;20040;-74
2021/11/22 08:27:16;;;;;;;10.30;5.68;;;;;;;4.95;100.00;99013.63;5065403;28;20525;-74
2021/11/22 08:29:41;;;;;;;12.57;5.53;;;;;;;5.03;100.00;99026.19;5056405;28;20056;-75
2021/11/22 08:32:07;;;;;;;9.55;5.70;;;;;;;4.97;100.00;99010.78;5082164;28;20017;-75
2021/11/22 08:34:32;;;;;;;11.73;5.85;;;;;;;5.13;100.00;99036.78;5071637;28;20020;-77
2021/11/22 08:36:57;;;;;;;12.18;6.38;;;;;;;5.15;100.00;99045.53;5069473;28;20150;-73
2021/11/22 08:39:23;;;;;;;10.20;5.97;;;;;;;5.16;100.00;99036.47;5067480;28;20078;-74
2021/11/22 08:41:48;;;;;;;12.32;6.07;;;;;;;4.94;100.00;99001.22;5069913;28;20032;-73
2021/11/22 08:44:14;;;;;;;12.68;6.10;;;;;;;5.09;100.00;99014.84;5066133;28;20479;-76
2021/11/22 08:46:40;;;;;;;15.65;6.07;;;;;;;4.99;100.00;99006.91;5061131;28;20032;-74
2021/11/22 08:49:07;;;;;;;11.55;6.40;;;;;;;5.32;100.00;99057.13;5069392;28;20030;-77
2021/11/22 08:51:33;;;;;;;10.38;6.32;;;;;;;5.22;100.00;99038.50;5070174;28;20020;-76
2021/11/22 08:53:58;;;;;;;14.65;6.63;;;;;;;5.20;100.00;99019.06;5069708;28;20024;-76
2021/11/22 08:56:23;;;;;;;14.45;6.47;;;;;;;5.36;100.00;99032.50;5070023;28;20756;-78
2021/11/22 08:58:49;;;;;;;16.45;7.20;;;;;;;5.42;100.00;99034.53;5071440;28;20610;-76
2021/11/22 09:01:14;;;;;;;10.30;5.85;;;;;;;5.66;100.00;99046.31;5069727;28;20494;-75
2021/11/22 09:03:39;;;;;;;10.00;6.03;;;;;;;5.66;100.00;99043.66;5071691;28;20059;-78
2021/11/22 09:06:05;;;;;;;12.32;5.45;;;;;;;5.93;100.00;99069.31;5070307;28;20021;-76
2021/11/22 09:08:31;;;;;;;10.88;6.18;;;;;;;5.80;100.00;99039.44;5070287;28;20024;-75
2021/11/22 09:10:56;;;;;;;11.68;5.82;;;;;;;6.20;100.00;99075.41;5069592;28;20031;-75
2021/11/22 09:13:23;;;;;;;13.20;5.57;;;;;;;6.36;100.00;99070.84;5070389;28;20503;-70
2021/11/22 09:15:48;;;;;;;9.68;5.70;;;;;;;6.31;100.00;99083.97;5065567;28;20037;-71
2021/11/22 09:18:13;;;;;;;10.15;5.43;;;;;;;6.37;100.00;99082.44;5060019;28;20079;-70
2021/11/22 09:20:40;;;;;;;10.52;5.82;;;;;;;6.31;100.00;99067.84;5066955;28;20029;-69
2021/11/22 09:23:05;;;;;;;11.60;5.40;;;;;;;6.50;100.00;99084.63;5062275;28;20053;-71
2021/11/22 09:25:30;;;;;;;10.80;5.18;;;;;;;6.27;100.00;99066.50;5068123;28;20056;-77
2021/11/22 09:27:57;;;;;;;10.73;5.55;;;;;;;6.43;100.00;99097.06;5069061;28;20116;-74
2021/11/22 09:30:23;;;;;;;8.35;4.90;;;;;;;6.46;100.00;99107.47;5069905;28;20096;-75
2021/11/22 09:32:48;;;;;;;7.97;4.95;;;;;;;6.44;100.00;99106.78;5069918;28;20120;-79
2021/11/22 09:35:14;;;;;;;8.45;4.93;;;;;;;6.51;100.00;99107.78;5069464;28;20020;-72
2021/11/22 09:37:40;;;;;;;7.50;4.93;;;;;;;6.45;99.25;99111.16;5057715;28;20371;-73
2021/11/22 09:40:08;;;;;;;9.00;4.38;;;;;;;6.35;99.04;99093.34;5069634;28;20032;-75
2021/11/22 09:42:34;;;;;;;8.77;4.68;;;;;;;6.28;99.73;99102.25;5068266;28;20036;-76
2021/11/22 09:45:02;;;;;;;7.45;4.03;;;;;;;6.27;98.97;99089.84;5069308;28;20032;-76
2021/11/22 09:47:28;;;;;;;9.20;4.50;;;;;;;6.33;100.00;99106.13;5063562;28;20016;-77
2021/11/22 09:49:54;;;;;;;11.40;4.88;;;;;;;6.36;99.29;99094.19;5063723;28;20028;-73
2021/11/22 09:52:25;;;;;;;9.70;4.28;;;;;;;6.49;99.91;99121.38;5065112;28;20036;-71
2021/11/22 09:54:50;;;;;;;8.77;3.92;;;;;;;6.55;99.24;99115.34;5065175;28;20059;-73
2021/11/22 09:57:16;;;;;;;7.80;4.03;;;;;;;6.52;99.46;99130.97;5065530;28;20053;-70
2021/11/22 09:59:42;;;;;;;14.80;5.00;;;;;;;6.39;99.08;99126.09;5060185;28;20385;-69
2021/11/22 10:02:08;;;;;;;8.05;3.95;;;;;;;6.39;99.09;99125.25;5067354;28;20032;-73
2021/11/22 10:04:33;;;;;;;6.88;3.60;;;;;;;6.31;99.19;99128.78;5064766;28;20024;-75
2021/11/22 10:07:00;;;;;;;10.38;3.95;;;;;;;6.35;98.10;99135.53;5064780;28;20043;-74
2021/11/22 10:09:32;;;;;;;13.32;4.32;;;;;;;6.28;97.74;99138.03;5063157;28;20035;-73
2021/11/22 10:12:01;;;;;;;10.50;4.68;;;;;;;6.09;98.23;99106.13;5063094;28;20028;-71
2021/11/22 10:14:33;;;;;;;14.30;4.53;;;;;;;6.12;98.24;99135.34;5061213;28;20028;-67
2021/11/22 10:16:59;;;;;;;6.95;3.67;;;;;;;6.09;97.83;99141.88;5060178;28;20032;-67
2021/11/22 10:19:24;;;;;;;8.23;4.78;;;;;;;6.11;98.60;99142.56;5064690;28;20020;-68
2021/11/22 10:21:50;;;;;;;13.88;4.50;;;;;;;6.02;97.50;99131.97;5069141;28;20827;-79
2021/11/22 10:24:15;;;;;;;7.93;3.70;;;;;;;5.89;97.53;99119.00;5066603;28;20028;-72
2021/11/22 10:26:48;;;;;;;10.13;4.00;;;;;;;6.12;97.56;99148.78;5063108;28;20115;-71
2021/11/22 10:29:22;;;;;;;7.03;3.55;;;;;;;6.05;97.29;99147.75;5059397;28;20028;-74
2021/11/22 10:31:51;;;;;;;7.47;3.70;;;;;;;6.07;97.94;99151.94;5056082;28;20033;-74
2021/11/22 10:34:17;;;;;;;10.35;3.95;;;;;;;5.74;97.17;99094.66;5064911;28;20425;-70
2021/11/22 10:36:42;;;;;;;9.60;4.95;;;;;;;6.11;97.57;99158.69;5053866;28;20033;-70
2021/11/22 10:39:10;;;;;;;9.73;3.80;;;;;;;6.10;98.44;99150.78;5055052;28;20033;-71
2021/11/22 10:41:39;;;;;;;10.07;3.42;;;;;;;6.24;96.93;99149.28;5056937;28;20490;-70
2021/11/22 10:44:11;;;;;;;6.65;3.47;;;;;;;6.34;96.56;99140.06;5062333;28;20024;-71
2021/11/22 10:46:48;;;;;;;7.07;3.17;;;;;;;6.59;94.79;99161.53;5061057;28;20477;-71
2021/11/22 10:49:27;;;;;;;7.38;3.38;;;;;;;6.54;94.62;99145.91;5064140;28;20024;-70
2021/11/22 10:52:06;;;;;;;8.95;2.95;;;;;;;6.63;95.56;99162.03;5067557;28;20545;-69
2021/11/22 10:54:35;;;;;;;5.15;2.70;;;;;;;6.65;92.35;99151.97;5058406;28;20036;-73
2021/11/22 10:57:11;;;;;;;10.30;2.80;;;;;;;6.78;93.10;99165.72;5080676;28;20020;-72
2021/11/22 10:59:36;;;;;;;7.72;2.63;;;;;;;6.76;93.47;99154.31;5070899;28;20111;-73
2021/11/22 11:02:02;;;;;;;10.52;2.95;;;;;;;6.72;93.08;99169.09;5071205;28;20132;-71
2021/11/22 11:04:34;;;;;;;9.18;3.05;;;;;;;6.82;93.11;99160.84;5071777;28;20094;-74
2021/11/22 11:06:59;;;;;;;5.72;3.10;;;;;;;6.66;92.68;99170.63;5068558;28;20059;-72
2021/11/22 11:09:29;;;;;;;8.10;2.75;;;;;;;6.56;91.58;99160.03;5064568;28;20063;-71
2021/11/22 11:12:19;;;;;;;4.93;2.60;;;;;;;6.45;92.30;99167.63;5063512;28;20032;-72
2021/11/22 11:14:57;;;;;;;7.32;2.65;;;;;;;6.41;93.60;99171.63;5066376;28;20150;-70
2021/11/22 11:17:36;;;;;;;4.68;2.60;;;;;;;6.34;92.20;99148.13;5069379;28;20133;-70
2021/11/22 11:20:08;;;;;;;7.90;3.00;;;;;;;6.52;91.65;99172.16;5071130;28;20032;-73
2021/11/22 11:22:34;;;;;;;4.65;2.83;;;;;;;6.62;91.54;99177.34;5068870;28;20036;-72